createdAt,value
2018-05-02T00:00:09.468Z,87.08
2018-05-02T00:01:10.042Z,87.21
2018-05-02T00:02:10.621Z,86.98
2018-05-02T00:03:55.710Z,86.98
2018-05-02T00:04:56.339Z,87.12
2018-05-02T00:05:56.919Z,87.46
2018-05-02T00:06:57.494Z,87.46
2018-05-02T00:08:42.584Z,87.17
2018-05-02T00:09:43.163Z,87.08
2018-05-02T00:10:43.742Z,87.84
2018-05-02T00:11:44.322Z,88.13
2018-05-02T00:13:29.616Z,87.70
2018-05-02T00:14:30.189Z,87.94
2018-05-02T00:15:30.768Z,87.27
2018-05-02T00:16:31.437Z,87.08
2018-05-02T00:18:16.535Z,87.65
2018-05-02T00:19:17.107Z,87.08
2018-05-02T00:20:17.691Z,87.27
2018-05-02T00:21:18.266Z,87.08
2018-05-02T00:23:03.355Z,87.55
2018-05-02T00:24:03.935Z,87.55
2018-05-02T00:25:04.514Z,87.27
2018-05-02T00:26:05.093Z,88.03
2018-05-02T00:27:50.181Z,88.80
2018-05-02T00:28:50.757Z,88.13
2018-05-02T00:29:51.337Z,86.98
2018-05-02T00:30:51.916Z,88.13
2018-05-02T00:32:37.056Z,87.55
2018-05-02T00:33:37.635Z,88.13
2018-05-02T00:34:38.257Z,88.32
2018-05-02T00:35:38.892Z,88.42
2018-05-02T00:37:24.027Z,87.94
2018-05-02T00:38:24.606Z,87.74
2018-05-02T00:39:25.219Z,87.84
2018-05-02T00:40:25.769Z,89.18
2018-05-02T00:42:10.853Z,88.80
2018-05-02T00:43:11.432Z,88.23
2018-05-02T00:44:12.010Z,88.13
2018-05-02T00:45:12.593Z,88.61
2018-05-02T00:46:57.679Z,88.90
2018-05-02T00:47:58.309Z,88.42
2018-05-02T00:48:58.886Z,89.18
2018-05-02T00:49:59.471Z,88.70
2018-05-02T00:51:44.552Z,87.84
2018-05-02T00:52:45.180Z,88.32
2018-05-02T00:53:45.760Z,89.09
2018-05-02T00:54:46.385Z,89.18
2018-05-02T00:56:31.477Z,89.57
2018-05-02T00:57:32.060Z,88.70
2018-05-02T00:58:32.634Z,88.61
2018-05-02T00:59:33.214Z,88.23
2018-05-02T01:01:18.355Z,88.13
2018-05-02T01:02:18.932Z,89.18
2018-05-02T01:03:19.509Z,89.18
2018-05-02T01:04:20.086Z,88.80
2018-05-02T01:06:05.176Z,87.94
2018-05-02T01:07:05.755Z,88.23
2018-05-02T01:08:06.332Z,88.32
2018-05-02T01:09:06.913Z,88.99
2018-05-02T01:10:52.051Z,89.09
2018-05-02T01:11:52.785Z,88.99
2018-05-02T01:12:53.402Z,89.18
2018-05-02T01:13:53.982Z,88.42
2018-05-02T01:15:39.125Z,88.23
2018-05-02T01:16:39.746Z,88.42
2018-05-02T01:17:40.363Z,88.80
2018-05-02T01:18:40.945Z,88.99
2018-05-02T01:20:26.032Z,88.61
2018-05-02T01:21:26.610Z,88.80
2018-05-02T01:22:27.188Z,88.99
2018-05-02T01:23:27.767Z,88.23
2018-05-02T01:25:12.855Z,89.57
2018-05-02T01:26:13.434Z,91.29
2018-05-02T01:27:14.017Z,89.66
2018-05-02T01:28:14.601Z,88.90
2018-05-02T01:29:59.780Z,88.99
2018-05-02T01:31:00.354Z,90.23
2018-05-02T01:32:00.984Z,89.76
2018-05-02T01:33:01.564Z,88.99
2018-05-02T01:34:46.896Z,89.37
2018-05-02T01:35:47.473Z,89.57
2018-05-02T01:36:48.053Z,89.28
2018-05-02T01:37:48.631Z,88.99
2018-05-02T01:39:33.722Z,89.66
2018-05-02T01:40:34.299Z,89.66
2018-05-02T01:41:34.878Z,89.18
2018-05-02T01:42:35.508Z,88.70
2018-05-02T01:44:20.600Z,88.99
2018-05-02T01:45:21.227Z,89.57
2018-05-02T01:46:21.806Z,89.66
2018-05-02T01:47:22.383Z,89.57
2018-05-02T01:49:07.474Z,89.37
2018-05-02T01:50:08.052Z,89.86
2018-05-02T01:51:08.630Z,89.47
2018-05-02T01:52:09.260Z,89.76
2018-05-02T01:53:54.351Z,89.37
2018-05-02T01:54:54.929Z,88.99
2018-05-02T01:55:55.508Z,89.57
2018-05-02T01:56:56.141Z,89.47
2018-05-02T01:58:41.229Z,90.33
2018-05-02T01:59:41.810Z,91.10
2018-05-02T02:00:42.387Z,89.66
2018-05-02T02:01:42.974Z,89.37
2018-05-02T02:03:28.055Z,90.23
2018-05-02T02:04:28.634Z,90.05
2018-05-02T02:05:29.412Z,89.86
2018-05-02T02:06:29.989Z,90.23
2018-05-02T02:08:15.079Z,90.05
2018-05-02T02:09:15.657Z,90.23
2018-05-02T02:10:16.235Z,89.47
2018-05-02T02:11:16.865Z,89.95
2018-05-02T02:13:01.957Z,89.09
2018-05-02T02:14:02.536Z,90.53
2018-05-02T02:15:03.117Z,90.62
2018-05-02T02:16:03.693Z,89.66
2018-05-02T02:17:48.782Z,90.14
2018-05-02T02:18:49.413Z,90.05
2018-05-02T02:19:49.988Z,90.33
2018-05-02T02:20:50.570Z,90.14
2018-05-02T02:22:35.655Z,89.86
2018-05-02T02:23:36.233Z,90.43
2018-05-02T02:24:36.811Z,91.29
2018-05-02T02:25:37.440Z,90.14
2018-05-02T02:27:22.531Z,89.76
2018-05-02T02:28:23.109Z,90.72
2018-05-02T02:29:23.688Z,90.14
2018-05-02T02:30:24.317Z,91.00
2018-05-02T02:32:09.410Z,91.19
2018-05-02T02:33:09.992Z,90.72
2018-05-02T02:34:10.570Z,90.81
2018-05-02T02:35:11.147Z,91.10
2018-05-02T02:36:56.236Z,91.19
2018-05-02T02:37:56.865Z,91.19
2018-05-02T02:38:57.442Z,91.29
2018-05-02T02:39:58.020Z,91.19
2018-05-02T02:41:43.160Z,90.91
2018-05-02T02:42:43.737Z,90.81
2018-05-02T02:43:44.315Z,91.00
2018-05-02T02:44:44.897Z,91.10
2018-05-02T02:46:30.023Z,91.19
2018-05-02T02:47:30.601Z,90.81
2018-05-02T02:48:31.182Z,91.29
2018-05-02T02:49:31.758Z,91.19
2018-05-02T02:51:16.898Z,91.10
2018-05-02T02:52:17.476Z,91.86
2018-05-02T02:53:18.103Z,91.49
2018-05-02T02:54:18.681Z,91.58
2018-05-02T02:56:03.770Z,92.25
2018-05-02T02:57:04.397Z,92.15
2018-05-02T02:58:05.025Z,91.86
2018-05-02T02:59:05.696Z,92.54
2018-05-02T03:00:50.788Z,92.82
2018-05-02T03:01:51.364Z,92.44
2018-05-02T03:02:51.951Z,92.92
2018-05-02T03:03:52.521Z,93.21
2018-05-02T03:05:37.609Z,92.92
2018-05-02T03:06:38.187Z,92.73
2018-05-02T03:07:38.765Z,91.96
2018-05-02T03:08:39.345Z,91.96
2018-05-02T03:10:24.486Z,91.86
2018-05-02T03:11:25.068Z,92.25
2018-05-02T03:12:25.685Z,92.25
2018-05-02T03:13:26.264Z,91.67
2018-05-02T03:15:11.402Z,90.72
2018-05-02T03:16:11.981Z,90.81
2018-05-02T03:17:12.608Z,91.25
2018-05-02T03:18:13.188Z,91.49
2018-05-02T03:19:58.275Z,91.15
2018-05-02T03:20:58.853Z,91.53
2018-05-02T03:21:59.433Z,91.44
2018-05-02T03:23:00.012Z,91.19
2018-05-02T03:24:45.100Z,91.96
2018-05-02T03:25:45.727Z,92.15
2018-05-02T03:26:46.305Z,91.49
2018-05-02T03:27:46.881Z,92.01
2018-05-02T03:29:31.972Z,92.30
2018-05-02T03:30:32.550Z,91.77
2018-05-02T03:31:33.131Z,92.21
2018-05-02T03:32:33.800Z,91.67
2018-05-02T03:34:18.940Z,92.11
2018-05-02T03:35:19.519Z,92.30
2018-05-02T03:36:20.097Z,92.06
2018-05-02T03:37:20.677Z,91.53
2018-05-02T03:39:05.765Z,92.01
2018-05-02T03:40:06.345Z,91.72
2018-05-02T03:41:06.922Z,92.06
2018-05-02T03:42:07.499Z,92.49
2018-05-02T03:43:52.587Z,91.82
2018-05-02T03:44:53.164Z,91.25
2018-05-02T03:45:53.742Z,91.25
2018-05-02T03:46:54.322Z,92.01
2018-05-02T03:48:39.410Z,92.40
2018-05-02T03:49:40.038Z,92.21
2018-05-02T03:50:40.614Z,92.35
2018-05-02T03:51:41.199Z,92.40
2018-05-02T03:53:26.338Z,92.49
2018-05-02T03:54:26.915Z,92.49
2018-05-02T03:55:27.496Z,92.97
2018-05-02T03:56:28.120Z,92.68
2018-05-02T03:58:13.210Z,92.58
2018-05-02T03:59:13.789Z,92.78
2018-05-02T04:00:14.368Z,92.78
2018-05-02T04:01:14.945Z,92.97
2018-05-02T04:03:00.033Z,92.01
2018-05-02T04:04:00.616Z,93.07
2018-05-02T04:05:01.188Z,92.40
2018-05-02T04:06:01.766Z,93.26
2018-05-02T04:07:46.906Z,92.87
2018-05-02T04:08:47.481Z,92.30
2018-05-02T04:09:48.061Z,92.21
2018-05-02T04:10:48.636Z,93.07
2018-05-02T04:12:33.725Z,92.87
2018-05-02T04:13:34.303Z,93.07
2018-05-02T04:14:34.881Z,92.78
2018-05-02T04:15:35.460Z,93.45
2018-05-02T04:17:20.601Z,92.78
2018-05-02T04:18:21.230Z,93.83
2018-05-02T04:19:21.807Z,92.68
2018-05-02T04:20:22.382Z,92.40
2018-05-02T04:22:07.471Z,92.68
2018-05-02T04:23:08.051Z,92.87
2018-05-02T04:24:08.629Z,93.07
2018-05-02T04:25:09.258Z,93.26
2018-05-02T04:26:54.401Z,93.74
2018-05-02T04:27:54.978Z,94.31
2018-05-02T04:28:55.556Z,93.93
2018-05-02T04:29:56.136Z,93.93
2018-05-02T04:31:41.271Z,93.83
2018-05-02T04:32:41.845Z,94.31
2018-05-02T04:33:42.423Z,93.16
2018-05-02T04:34:43.003Z,93.74
2018-05-02T04:36:28.141Z,93.54
2018-05-02T04:37:28.719Z,92.97
2018-05-02T04:38:29.300Z,92.87
2018-05-02T04:39:29.967Z,93.35
2018-05-02T04:41:15.058Z,93.54
2018-05-02T04:42:15.638Z,93.93
2018-05-02T04:43:16.214Z,94.31
2018-05-02T04:44:16.793Z,94.40
2018-05-02T04:46:01.880Z,94.45
2018-05-02T04:47:02.459Z,93.54
2018-05-02T04:48:03.037Z,93.26
2018-05-02T04:49:03.619Z,93.07
2018-05-02T04:50:48.755Z,92.68
2018-05-02T04:51:49.383Z,93.35
2018-05-02T04:52:50.015Z,93.93
2018-05-02T04:53:50.537Z,93.74
2018-05-02T04:55:35.626Z,93.74
2018-05-02T04:56:36.208Z,93.64
2018-05-02T04:57:36.836Z,93.64
2018-05-02T04:58:37.456Z,93.83
2018-05-02T05:00:22.550Z,93.16
2018-05-02T05:01:23.169Z,94.60
2018-05-02T05:02:23.747Z,93.54
2018-05-02T05:03:24.325Z,93.16
2018-05-02T05:05:09.417Z,93.26
2018-05-02T05:06:09.995Z,93.16
2018-05-02T05:07:10.574Z,93.16
2018-05-02T05:08:11.153Z,92.30
2018-05-02T05:09:56.292Z,93.16
2018-05-02T05:10:56.868Z,92.87
2018-05-02T05:11:57.495Z,93.35
2018-05-02T05:12:58.073Z,92.78
2018-05-02T05:14:43.362Z,92.30
2018-05-02T05:15:43.940Z,92.87
2018-05-02T05:16:44.518Z,92.87
2018-05-02T05:17:45.149Z,93.07
2018-05-02T05:19:30.239Z,93.74
2018-05-02T05:20:30.817Z,93.16
2018-05-02T05:21:31.394Z,93.93
2018-05-02T05:22:31.974Z,92.97
2018-05-02T05:24:17.113Z,93.74
2018-05-02T05:25:17.690Z,92.87
2018-05-02T05:26:18.269Z,93.54
2018-05-02T05:27:18.847Z,93.74
2018-05-02T05:29:03.937Z,93.64
2018-05-02T05:30:04.565Z,92.78
2018-05-02T05:31:05.242Z,93.07
2018-05-02T05:32:05.817Z,93.54
2018-05-02T05:33:51.109Z,93.07
2018-05-02T05:34:51.787Z,93.54
2018-05-02T05:35:52.366Z,93.07
2018-05-02T05:36:52.944Z,92.68
2018-05-02T05:38:38.036Z,93.64
2018-05-02T05:39:38.613Z,93.35
2018-05-02T05:40:39.190Z,93.26
2018-05-02T05:41:39.769Z,92.87
2018-05-02T05:43:24.859Z,93.07
2018-05-02T05:44:25.439Z,92.87
2018-05-02T05:45:26.015Z,93.26
2018-05-02T05:46:26.594Z,93.07
2018-05-02T05:48:11.776Z,93.07
2018-05-02T05:49:12.353Z,92.78
2018-05-02T05:50:12.981Z,93.45
2018-05-02T05:51:13.557Z,93.35
2018-05-02T05:52:58.699Z,93.26
2018-05-02T05:53:59.383Z,92.87
2018-05-02T05:54:59.851Z,93.35
2018-05-02T05:56:00.428Z,93.35
2018-05-02T05:57:45.519Z,93.54
2018-05-02T05:58:46.097Z,93.54
2018-05-02T05:59:46.674Z,93.83
2018-05-02T06:00:47.281Z,93.54
2018-05-02T06:02:32.342Z,93.26
2018-05-02T06:03:32.920Z,93.83
2018-05-02T06:04:33.552Z,93.26
2018-05-02T06:05:34.124Z,93.35
2018-05-02T06:07:19.216Z,94.02
2018-05-02T06:08:19.791Z,93.74
2018-05-02T06:09:20.421Z,93.16
2018-05-02T06:10:21.039Z,93.45
2018-05-02T06:12:06.328Z,93.74
2018-05-02T06:13:06.905Z,93.93
2018-05-02T06:14:07.482Z,94.98
2018-05-02T06:15:08.060Z,94.50
2018-05-02T06:16:53.191Z,94.60
2018-05-02T06:17:53.769Z,94.21
2018-05-02T06:18:54.346Z,94.60
2018-05-02T06:19:54.925Z,95.17
2018-05-02T06:21:40.014Z,94.60
2018-05-02T06:22:40.592Z,94.02
2018-05-02T06:23:41.170Z,93.93
2018-05-02T06:24:41.749Z,93.26
2018-05-02T06:26:26.887Z,94.02
2018-05-02T06:27:27.514Z,93.93
2018-05-02T06:28:28.097Z,93.83
2018-05-02T06:29:28.712Z,93.83
2018-05-02T06:31:13.854Z,94.89
2018-05-02T06:32:14.431Z,94.69
2018-05-02T06:33:15.008Z,93.93
2018-05-02T06:34:15.583Z,93.54
2018-05-02T06:36:00.673Z,93.93
2018-05-02T06:37:01.250Z,94.69
2018-05-02T06:38:01.827Z,94.60
2018-05-02T06:39:02.405Z,93.93
2018-05-02T06:40:47.493Z,94.69
2018-05-02T06:41:48.071Z,94.12
2018-05-02T06:42:48.647Z,94.60
2018-05-02T06:43:49.226Z,95.27
2018-05-02T06:45:34.318Z,94.60
2018-05-02T06:46:34.943Z,94.69
2018-05-02T06:47:35.569Z,94.69
2018-05-02T06:48:36.296Z,94.98
2018-05-02T06:50:21.417Z,94.69
2018-05-02T06:51:21.963Z,94.89
2018-05-02T06:52:22.541Z,94.60
2018-05-02T06:53:23.121Z,94.69
2018-05-02T06:55:08.211Z,94.79
2018-05-02T06:56:08.788Z,94.98
2018-05-02T06:57:09.366Z,94.89
2018-05-02T06:58:09.945Z,94.89
2018-05-02T06:59:55.032Z,94.40
2018-05-02T07:00:55.629Z,94.02
2018-05-02T07:01:56.189Z,94.79
2018-05-02T07:02:56.768Z,94.89
2018-05-02T07:04:41.858Z,94.12
2018-05-02T07:05:42.439Z,94.89
2018-05-02T07:06:43.107Z,94.60
2018-05-02T07:07:43.735Z,94.50
2018-05-02T07:09:28.826Z,95.17
2018-05-02T07:10:29.554Z,94.79
2018-05-02T07:11:30.137Z,95.17
2018-05-02T07:12:30.710Z,94.89
2018-05-02T07:14:15.799Z,95.27
2018-05-02T07:15:16.377Z,94.79
2018-05-02T07:16:16.960Z,94.98
2018-05-02T07:17:17.579Z,95.07
2018-05-02T07:19:02.669Z,95.07
2018-05-02T07:20:03.251Z,94.79
2018-05-02T07:21:03.867Z,94.89
2018-05-02T07:22:04.444Z,95.65
2018-05-02T07:23:49.590Z,95.17
2018-05-02T07:24:50.161Z,95.17
2018-05-02T07:25:50.780Z,94.79
2018-05-02T07:26:51.357Z,94.89
2018-05-02T07:28:36.646Z,95.36
2018-05-02T07:29:37.272Z,95.17
2018-05-02T07:30:37.849Z,95.56
2018-05-02T07:31:38.478Z,94.98
2018-05-02T07:33:23.567Z,94.98
2018-05-02T07:34:24.145Z,95.07
2018-05-02T07:35:24.726Z,95.36
2018-05-02T07:36:25.342Z,94.98
2018-05-02T07:38:10.431Z,95.46
2018-05-02T07:39:11.059Z,95.36
2018-05-02T07:40:11.635Z,95.46
2018-05-02T07:41:12.215Z,95.65
2018-05-02T07:42:57.302Z,95.84
2018-05-02T07:43:57.880Z,95.75
2018-05-02T07:44:58.459Z,96.13
2018-05-02T07:45:59.038Z,95.75
2018-05-02T07:47:44.175Z,95.56
2018-05-02T07:48:44.753Z,94.69
2018-05-02T07:49:45.380Z,95.84
2018-05-02T07:50:45.958Z,95.65
2018-05-02T07:52:31.098Z,95.94
2018-05-02T07:53:31.677Z,95.84
2018-05-02T07:54:32.254Z,95.94
2018-05-02T07:55:32.833Z,95.79
2018-05-02T07:57:17.922Z,95.07
2018-05-02T07:58:18.501Z,95.27
2018-05-02T07:59:19.120Z,95.07
2018-05-02T08:00:19.701Z,94.89
2018-05-02T08:02:04.786Z,95.65
2018-05-02T08:03:05.365Z,96.22
2018-05-02T08:04:05.947Z,95.84
2018-05-02T08:05:06.524Z,95.60
2018-05-02T08:06:51.713Z,96.13
2018-05-02T08:07:52.290Z,96.13
2018-05-02T08:08:52.867Z,95.84
2018-05-02T08:09:53.446Z,95.84
2018-05-02T08:11:38.534Z,95.98
2018-05-02T08:12:39.114Z,95.65
2018-05-02T08:13:39.735Z,96.13
2018-05-02T08:14:40.314Z,96.47
2018-05-02T08:16:25.535Z,96.03
2018-05-02T08:17:26.030Z,96.37
2018-05-02T08:18:26.607Z,95.89
2018-05-02T08:19:27.184Z,95.94
2018-05-02T08:21:12.282Z,96.42
2018-05-02T08:22:12.910Z,96.70
2018-05-02T08:23:13.487Z,96.84
2018-05-02T08:24:14.066Z,96.27
2018-05-02T08:25:59.159Z,96.56
2018-05-02T08:26:59.741Z,96.08
2018-05-02T08:28:00.365Z,96.47
2018-05-02T08:29:00.943Z,96.84
2018-05-02T08:30:46.036Z,96.18
2018-05-02T08:31:46.615Z,96.08
2018-05-02T08:32:47.261Z,96.37
2018-05-02T08:33:47.772Z,96.84
2018-05-02T08:35:32.865Z,96.37
2018-05-02T08:36:33.489Z,96.84
2018-05-02T08:37:34.068Z,96.84
2018-05-02T08:38:34.644Z,96.75
2018-05-02T08:40:19.735Z,95.98
2018-05-02T08:41:20.311Z,96.08
2018-05-02T08:42:20.893Z,96.08
2018-05-02T08:43:21.472Z,96.27
2018-05-02T08:45:06.609Z,96.18
2018-05-02T08:46:07.188Z,95.60
2018-05-02T08:47:07.817Z,95.89
2018-05-02T08:48:08.393Z,96.56
2018-05-02T08:49:53.500Z,95.89
2018-05-02T08:50:54.103Z,96.37
2018-05-02T08:51:54.731Z,96.18
2018-05-02T08:52:55.310Z,96.18
2018-05-02T08:54:40.403Z,96.08
2018-05-02T08:55:41.032Z,95.89
2018-05-02T08:56:41.610Z,95.51
2018-05-02T08:57:42.189Z,96.08
2018-05-02T08:59:27.281Z,95.98
2018-05-02T09:00:27.910Z,95.70
2018-05-02T09:01:28.488Z,96.08
2018-05-02T09:02:29.116Z,96.08
2018-05-02T09:04:14.208Z,95.60
2018-05-02T09:05:14.786Z,96.08
2018-05-02T09:06:15.367Z,95.79
2018-05-02T09:07:15.985Z,96.18
2018-05-02T09:09:01.167Z,95.98
2018-05-02T09:10:01.653Z,95.12
2018-05-02T09:11:02.235Z,95.79
2018-05-02T09:12:02.854Z,95.60
2018-05-02T09:13:47.993Z,95.22
2018-05-02T09:14:48.573Z,95.41
2018-05-02T09:15:49.156Z,95.98
2018-05-02T09:16:49.727Z,95.41
2018-05-02T09:18:34.865Z,96.08
2018-05-02T09:19:35.445Z,95.79
2018-05-02T09:20:36.023Z,96.18
2018-05-02T09:21:36.652Z,96.18
2018-05-02T09:23:21.745Z,96.18
2018-05-02T09:24:22.324Z,95.89
2018-05-02T09:25:22.904Z,95.60
2018-05-02T09:26:23.480Z,95.70
2018-05-02T09:28:08.571Z,95.89
2018-05-02T09:29:09.349Z,95.79
2018-05-02T09:30:09.927Z,95.89
2018-05-02T09:31:10.504Z,95.98
2018-05-02T09:32:55.596Z,95.70
2018-05-02T09:33:56.175Z,95.89
2018-05-02T09:34:56.753Z,95.12
2018-05-02T09:35:57.332Z,95.12
2018-05-02T09:37:42.424Z,95.31
2018-05-02T09:38:43.002Z,95.03
2018-05-02T09:39:43.581Z,95.22
2018-05-02T09:40:44.160Z,95.89
2018-05-02T09:42:29.252Z,95.22
2018-05-02T09:43:29.829Z,95.60
2018-05-02T09:44:30.458Z,94.84
2018-05-02T09:45:31.040Z,94.64
2018-05-02T09:47:16.128Z,95.60
2018-05-02T09:48:16.908Z,95.31
2018-05-02T09:49:17.487Z,95.98
2018-05-02T09:50:18.115Z,96.08
2018-05-02T09:52:03.220Z,95.70
2018-05-02T09:53:03.827Z,95.70
2018-05-02T09:54:04.406Z,95.60
2018-05-02T09:55:04.985Z,95.70
2018-05-02T09:56:50.075Z,95.79
2018-05-02T09:57:50.653Z,95.70
2018-05-02T09:58:51.234Z,95.60
2018-05-02T09:59:51.814Z,95.89
2018-05-02T10:01:36.948Z,96.08
2018-05-02T10:02:37.521Z,95.79
2018-05-02T10:03:38.099Z,95.89
2018-05-02T10:04:38.728Z,95.70
2018-05-02T10:06:23.817Z,94.93
2018-05-02T10:07:24.395Z,95.60
2018-05-02T10:08:25.024Z,95.70
2018-05-02T10:09:25.603Z,95.03
2018-05-02T10:11:10.747Z,95.70
2018-05-02T10:12:11.323Z,96.03
2018-05-02T10:13:11.902Z,95.98
2018-05-02T10:14:12.479Z,94.17
2018-05-02T10:15:57.568Z,93.21
2018-05-02T10:16:58.146Z,94.64
2018-05-02T10:17:58.724Z,95.03
2018-05-02T10:18:59.303Z,94.93
2018-05-02T10:20:44.393Z,93.69
2018-05-02T10:21:44.971Z,94.93
2018-05-02T10:22:45.547Z,94.50
2018-05-02T10:23:46.179Z,93.98
2018-05-02T10:25:31.358Z,92.82
2018-05-02T10:26:31.936Z,94.17
2018-05-02T10:27:32.564Z,89.57
2018-05-02T10:28:33.144Z,90.09
2018-05-02T10:30:18.237Z,90.43
2018-05-02T10:31:18.816Z,90.91
2018-05-02T10:32:19.394Z,91.10
2018-05-02T10:33:19.973Z,91.00
2018-05-02T10:35:05.064Z,93.78
2018-05-02T10:36:05.641Z,92.25
2018-05-02T10:37:06.221Z,90.91
2018-05-02T10:38:06.843Z,91.00
2018-05-02T10:39:51.988Z,89.95
2018-05-02T10:40:52.563Z,89.09
2018-05-02T10:41:53.142Z,89.86
2018-05-02T10:42:53.722Z,89.95
2018-05-02T10:44:38.813Z,91.00
2018-05-02T10:45:39.392Z,93.11
2018-05-02T10:46:40.023Z,93.30
2018-05-02T10:47:40.600Z,92.73
2018-05-02T10:49:25.693Z,89.57
2018-05-02T10:50:26.342Z,88.70
2018-05-02T10:51:26.900Z,90.53
2018-05-02T10:52:27.477Z,89.09
2018-05-02T10:54:12.570Z,88.51
2018-05-02T10:55:13.152Z,89.66
2018-05-02T10:56:13.728Z,89.28
2018-05-02T10:57:14.307Z,89.18
2018-05-02T10:58:59.398Z,87.74
2018-05-02T11:00:00.048Z,85.93
2018-05-02T11:01:00.649Z,84.39
2018-05-02T11:02:01.228Z,83.72
2018-05-02T11:03:46.371Z,84.39
2018-05-02T11:04:46.950Z,84.34
2018-05-02T11:05:47.529Z,85.54
2018-05-02T11:06:48.108Z,84.58
2018-05-02T11:08:33.199Z,84.82
2018-05-02T11:09:33.779Z,84.39
2018-05-02T11:10:34.356Z,84.88
2018-05-02T11:11:34.941Z,85.93
2018-05-02T11:13:20.027Z,87.12
2018-05-02T11:14:20.608Z,91.34
2018-05-02T11:15:21.235Z,87.27
2018-05-02T11:16:21.814Z,85.74
2018-05-02T11:18:06.956Z,86.25
2018-05-02T11:19:07.586Z,87.12
2018-05-02T11:20:08.163Z,85.49
2018-05-02T11:21:08.743Z,87.65
2018-05-02T11:22:53.835Z,86.35
2018-05-02T11:23:54.415Z,86.54
2018-05-02T11:24:54.994Z,86.16
2018-05-02T11:25:55.573Z,86.45
2018-05-02T11:27:40.664Z,87.31
2018-05-02T11:28:41.243Z,86.83
2018-05-02T11:29:41.822Z,87.21
2018-05-02T11:30:42.502Z,87.70
2018-05-02T11:32:27.694Z,86.64
2018-05-02T11:33:28.274Z,87.02
2018-05-02T11:34:28.951Z,86.93
2018-05-02T11:35:29.531Z,89.42
2018-05-02T11:37:14.628Z,87.50
2018-05-02T11:38:15.203Z,87.79
2018-05-02T11:39:15.782Z,88.84
2018-05-02T11:40:16.361Z,88.27
2018-05-02T11:42:01.457Z,87.60
2018-05-02T11:43:02.030Z,86.64
2018-05-02T11:44:02.609Z,86.25
2018-05-02T11:45:03.189Z,86.64
2018-05-02T11:46:48.330Z,85.49
2018-05-02T11:47:48.908Z,86.74
2018-05-02T11:48:49.488Z,85.97
2018-05-02T11:49:50.067Z,84.63
2018-05-02T11:51:35.209Z,85.30
2018-05-02T11:52:35.837Z,85.49
2018-05-02T11:53:36.485Z,84.25
2018-05-02T11:54:36.997Z,84.82
2018-05-02T11:56:22.090Z,83.19
2018-05-02T11:57:22.673Z,82.81
2018-05-02T11:58:23.295Z,83.29
2018-05-02T11:59:23.870Z,84.15
2018-05-02T12:01:08.962Z,83.76
2018-05-02T12:02:09.542Z,84.28
2018-05-02T12:03:10.120Z,84.91
2018-05-02T12:04:10.700Z,84.86
2018-05-02T12:05:55.791Z,83.38
2018-05-02T12:06:56.572Z,83.52
2018-05-02T12:07:57.200Z,83.42
2018-05-02T12:08:57.781Z,84.15
2018-05-02T12:10:42.871Z,84.38
2018-05-02T12:11:43.453Z,84.53
2018-05-02T12:12:44.078Z,85.30
2018-05-02T12:13:44.656Z,84.77
2018-05-02T12:15:29.750Z,84.77
2018-05-02T12:16:30.329Z,85.34
2018-05-02T12:17:30.907Z,84.34
2018-05-02T12:18:31.487Z,84.48
2018-05-02T12:20:16.578Z,84.95
2018-05-02T12:21:17.160Z,86.49
2018-05-02T12:22:17.739Z,87.07
2018-05-02T12:23:18.317Z,86.30
2018-05-02T12:25:03.462Z,86.68
2018-05-02T12:26:04.037Z,86.49
2018-05-02T12:27:04.665Z,87.16
2018-05-02T12:28:05.294Z,86.30
2018-05-02T12:29:50.386Z,85.05
2018-05-02T12:30:50.966Z,84.77
2018-05-02T12:31:51.545Z,83.91
2018-05-02T12:32:52.125Z,83.61
2018-05-02T12:34:37.216Z,83.23
2018-05-02T12:35:37.796Z,82.85
2018-05-02T12:36:38.376Z,82.94
2018-05-02T12:37:38.955Z,83.14
2018-05-02T12:39:24.047Z,84.48
2018-05-02T12:40:24.627Z,85.63
2018-05-02T12:41:25.205Z,85.53
2018-05-02T12:42:25.835Z,84.95
2018-05-02T12:44:10.928Z,84.42
2018-05-02T12:45:11.558Z,84.91
2018-05-02T12:46:12.137Z,85.34
2018-05-02T12:47:12.715Z,84.48
2018-05-02T12:48:57.810Z,83.08
2018-05-02T12:49:58.539Z,82.41
2018-05-02T12:50:59.122Z,82.51
2018-05-02T12:51:59.698Z,83.08
2018-05-02T12:53:44.789Z,82.21
2018-05-02T12:54:45.379Z,81.45
2018-05-02T12:55:45.948Z,81.64
2018-05-02T12:56:46.528Z,82.21
2018-05-02T12:58:31.620Z,82.41
2018-05-02T12:59:32.241Z,81.54
2018-05-02T13:00:32.870Z,82.41
2018-05-02T13:01:33.448Z,81.45
2018-05-02T13:03:18.541Z,82.31
2018-05-02T13:04:19.120Z,81.64
2018-05-02T13:05:19.750Z,82.12
2018-05-02T13:06:20.329Z,82.03
2018-05-02T13:08:05.547Z,81.54
2018-05-02T13:09:06.053Z,82.21
2018-05-02T13:10:06.632Z,81.54
2018-05-02T13:11:07.263Z,82.31
2018-05-02T13:12:52.356Z,82.12
2018-05-02T13:13:52.935Z,81.84
2018-05-02T13:14:53.515Z,81.35
2018-05-02T13:15:54.093Z,81.84
2018-05-02T13:17:39.235Z,82.70
2018-05-02T13:18:39.856Z,82.51
2018-05-02T13:19:40.435Z,82.03
2018-05-02T13:20:41.064Z,82.21
2018-05-02T13:22:26.306Z,81.64
2018-05-02T13:23:26.968Z,81.26
2018-05-02T13:24:27.464Z,81.07
2018-05-02T13:25:28.044Z,80.97
2018-05-02T13:27:13.185Z,81.93
2018-05-02T13:28:13.765Z,81.93
2018-05-02T13:29:14.343Z,81.74
2018-05-02T13:30:14.923Z,82.03
2018-05-02T13:32:00.016Z,82.03
2018-05-02T13:33:00.617Z,81.35
2018-05-02T13:34:01.174Z,81.40
2018-05-02T13:35:01.754Z,82.21
2018-05-02T13:36:47.096Z,82.12
2018-05-02T13:37:47.673Z,81.20
2018-05-02T13:38:48.251Z,80.91
2018-05-02T13:39:48.831Z,80.82
2018-05-02T13:41:33.924Z,83.31
2018-05-02T13:42:34.504Z,82.54
2018-05-02T13:43:35.084Z,81.30
2018-05-02T13:44:35.663Z,81.10
2018-05-02T13:46:20.756Z,82.16
2018-05-02T13:47:21.385Z,83.22
2018-05-02T13:48:21.963Z,83.70
2018-05-02T13:49:22.678Z,83.41
2018-05-02T13:51:07.638Z,82.35
2018-05-02T13:52:08.218Z,83.41
2018-05-02T13:53:08.796Z,81.40
2018-05-02T13:54:09.448Z,84.75
2018-05-02T13:55:54.565Z,80.63
2018-05-02T13:56:55.148Z,81.20
2018-05-02T13:57:55.773Z,81.59
2018-05-02T13:58:56.354Z,82.35
2018-05-02T14:00:41.447Z,84.27
2018-05-02T14:01:42.028Z,84.47
2018-05-02T14:02:42.606Z,84.75
2018-05-02T14:03:43.188Z,85.62
2018-05-02T14:05:28.278Z,84.56
2018-05-02T14:06:28.859Z,83.70
2018-05-02T14:07:29.490Z,84.66
2018-05-02T14:08:30.117Z,84.75
2018-05-02T14:10:15.204Z,84.95
2018-05-02T14:11:15.785Z,84.75
2018-05-02T14:12:16.365Z,83.60
2018-05-02T14:13:16.948Z,83.22
2018-05-02T14:15:02.138Z,84.95
2018-05-02T14:16:02.810Z,85.04
2018-05-02T14:17:03.337Z,84.75
2018-05-02T14:18:03.918Z,84.27
2018-05-02T14:19:49.012Z,85.24
2018-05-02T14:20:49.592Z,84.95
2018-05-02T14:21:50.172Z,84.95
2018-05-02T14:22:50.752Z,84.95
2018-05-02T14:24:35.848Z,85.24
2018-05-02T14:25:36.479Z,85.14
2018-05-02T14:26:37.057Z,85.24
2018-05-02T14:27:37.642Z,85.24
2018-05-02T14:29:22.731Z,85.33
2018-05-02T14:30:23.312Z,85.33
2018-05-02T14:31:23.892Z,86.54
2018-05-02T14:32:24.523Z,85.62
2018-05-02T14:34:09.865Z,84.85
2018-05-02T14:35:10.439Z,84.47
2018-05-02T14:36:11.021Z,84.08
2018-05-02T14:37:11.600Z,84.18
2018-05-02T14:38:56.692Z,83.60
2018-05-02T14:39:57.273Z,83.41
2018-05-02T14:40:57.852Z,82.26
2018-05-02T14:41:58.432Z,83.03
2018-05-02T14:43:43.525Z,82.35
2018-05-02T14:44:44.156Z,82.89
2018-05-02T14:45:44.735Z,82.07
2018-05-02T14:46:45.364Z,81.87
2018-05-02T14:48:30.459Z,82.54
2018-05-02T14:49:31.089Z,82.45
2018-05-02T14:50:31.667Z,81.78
2018-05-02T14:51:32.247Z,83.03
2018-05-02T14:53:17.392Z,83.08
2018-05-02T14:54:17.971Z,83.18
2018-05-02T14:55:18.549Z,83.27
2018-05-02T14:56:19.128Z,83.18
2018-05-02T14:58:04.222Z,83.56
2018-05-02T14:59:04.803Z,83.56
2018-05-02T15:00:05.382Z,83.65
2018-05-02T15:01:06.005Z,84.52
2018-05-02T15:02:51.146Z,84.33
2018-05-02T15:03:51.724Z,84.33
2018-05-02T15:04:52.304Z,83.89
2018-05-02T15:05:52.883Z,83.56
2018-05-02T15:07:37.978Z,83.27
2018-05-02T15:08:38.559Z,83.60
2018-05-02T15:09:39.137Z,83.56
2018-05-02T15:10:39.716Z,84.42
2018-05-02T15:12:24.860Z,84.42
2018-05-02T15:13:25.440Z,83.56
2018-05-02T15:14:26.068Z,84.42
2018-05-02T15:15:26.648Z,83.27
2018-05-02T15:17:11.746Z,83.18
2018-05-02T15:18:12.325Z,83.37
2018-05-02T15:19:12.905Z,84.23
2018-05-02T15:20:13.485Z,83.56
2018-05-02T15:21:58.579Z,83.08
2018-05-02T15:22:59.200Z,83.08